sensor_id;sensor_type;location;lat;lon;timestamp;P1;durP1;ratioP1;P2;durP2;ratioP2
49980;SDS011;35871;51.594;7.138;2023-04-28T05:51:52;4.97;;;3.47;;
49980;SDS011;35871;51.594;7.138;2023-04-28T05:56:53;5.95;;;4.53;;
49980;SDS011;35871;51.594;7.138;2023-04-28T06:01:54;5.22;;;3.33;;
49980;SDS011;35871;51.594;7.138;2023-04-28T06:11:56;5.10;;;4.40;;
49980;SDS011;35871;51.594;7.138;2023-04-28T06:21:58;5.88;;;4.55;;
49980;SDS011;35871;51.594;7.138;2023-04-28T06:26:59;5.15;;;4.57;;
49980;SDS011;35871;51.594;7.138;2023-04-28T06:32:01;7.75;;;6.43;;
49980;SDS011;35871;51.594;7.138;2023-04-28T06:37:03;5.13;;;3.95;;
49980;SDS011;35871;51.594;7.138;2023-04-28T06:42:04;5.25;;;3.90;;
49980;SDS011;35871;51.594;7.138;2023-04-28T06:47:05;5.50;;;3.50;;
49980;SDS011;35871;51.594;7.138;2023-04-28T06:52:06;5.25;;;4.25;;
49980;SDS011;35871;51.594;7.138;2023-04-28T06:57:07;7.22;;;5.35;;
49980;SDS011;35871;51.594;7.138;2023-04-28T07:02:08;5.00;;;3.25;;
49980;SDS011;35871;51.594;7.138;2023-04-28T07:07:10;5.10;;;3.35;;
49980;SDS011;35871;51.594;7.138;2023-04-28T07:12:19;4.80;;;3.80;;
49980;SDS011;35871;51.594;7.138;2023-04-28T07:17:21;6.25;;;4.35;;
49980;SDS011;35871;51.594;7.138;2023-04-28T07:22:22;7.18;;;4.53;;
49980;SDS011;35871;51.594;7.138;2023-04-28T07:27:23;6.43;;;4.32;;
49980;SDS011;35871;51.594;7.138;2023-04-28T07:32:24;6.05;;;3.75;;
49980;SDS011;35871;51.594;7.138;2023-04-28T07:37:25;5.53;;;3.55;;
49980;SDS011;35871;51.594;7.138;2023-04-28T07:42:26;7.53;;;4.18;;
49980;SDS011;35871;51.594;7.138;2023-04-28T07:47:27;5.88;;;3.67;;
49980;SDS011;35871;51.594;7.138;2023-04-28T07:52:28;8.75;;;4.88;;
49980;SDS011;35871;51.594;7.138;2023-04-28T07:57:29;6.43;;;4.90;;
49980;SDS011;35871;51.594;7.138;2023-04-28T08:02:30;7.47;;;5.93;;
49980;SDS011;35871;51.594;7.138;2023-04-28T08:07:33;16.33;;;13.15;;
49980;SDS011;35871;51.594;7.138;2023-04-28T08:12:34;10.85;;;8.13;;
49980;SDS011;35871;51.594;7.138;2023-04-28T08:17:35;10.43;;;7.00;;
49980;SDS011;35871;51.594;7.138;2023-04-28T08:22:36;10.20;;;6.72;;
49980;SDS011;35871;51.594;7.138;2023-04-28T08:27:37;8.13;;;7.00;;
49980;SDS011;35871;51.594;7.138;2023-04-28T08:32:39;9.18;;;6.75;;
49980;SDS011;35871;51.594;7.138;2023-04-28T08:37:40;8.65;;;5.93;;
49980;SDS011;35871;51.594;7.138;2023-04-28T08:42:41;7.00;;;4.25;;
49980;SDS011;35871;51.594;7.138;2023-04-28T08:47:46;10.93;;;4.40;;
49980;SDS011;35871;51.594;7.138;2023-04-28T08:52:51;8.57;;;3.85;;
49980;SDS011;35871;51.594;7.138;2023-04-28T08:57:53;8.27;;;3.50;;
49980;SDS011;35871;51.594;7.138;2023-04-28T09:02:55;11.60;;;4.82;;
49980;SDS011;35871;51.594;7.138;2023-04-28T09:07:56;9.85;;;4.10;;
49980;SDS011;35871;51.594;7.138;2023-04-28T09:12:57;6.15;;;4.28;;
49980;SDS011;35871;51.594;7.138;2023-04-28T09:17:58;6.13;;;3.55;;
49980;SDS011;35871;51.594;7.138;2023-04-28T09:23:16;7.43;;;4.07;;
49980;SDS011;35871;51.594;7.138;2023-04-28T09:28:19;7.25;;;3.47;;
49980;SDS011;35871;51.594;7.138;2023-04-28T09:33:21;11.48;;;3.63;;
49980;SDS011;35871;51.594;7.138;2023-04-28T09:38:22;6.65;;;3.58;;
49980;SDS011;35871;51.594;7.138;2023-04-28T09:43:27;9.73;;;3.38;;
49980;SDS011;35871;51.594;7.138;2023-04-28T09:48:32;6.72;;;3.72;;
49980;SDS011;35871;51.594;7.138;2023-04-28T09:53:34;6.50;;;4.05;;
49980;SDS011;35871;51.594;7.138;2023-04-28T09:58:35;7.28;;;3.85;;
49980;SDS011;35871;51.594;7.138;2023-04-28T10:03:39;7.22;;;4.03;;
49980;SDS011;35871;51.594;7.138;2023-04-28T10:08:41;6.82;;;3.95;;
49980;SDS011;35871;51.594;7.138;2023-04-28T10:13:44;8.02;;;3.88;;
49980;SDS011;35871;51.594;7.138;2023-04-28T10:18:46;6.88;;;3.72;;
49980;SDS011;35871;51.594;7.138;2023-04-28T10:23:58;7.30;;;3.92;;
49980;SDS011;35871;51.594;7.138;2023-04-28T10:28:59;5.28;;;3.95;;
49980;SDS011;35871;51.594;7.138;2023-04-28T10:34:20;6.03;;;4.95;;
49980;SDS011;35871;51.594;7.138;2023-04-28T10:39:22;5.68;;;3.70;;
49980;SDS011;35871;51.594;7.138;2023-04-28T11:00:26;6.23;;;3.60;;
49980;SDS011;35871;51.594;7.138;2023-04-28T11:05:27;6.40;;;3.92;;
49980;SDS011;35871;51.594;7.138;2023-04-28T11:16:02;4.90;;;3.70;;
49980;SDS011;35871;51.594;7.138;2023-04-28T11:21:04;4.80;;;3.80;;
49980;SDS011;35871;51.594;7.138;2023-04-28T11:26:05;6.88;;;4.05;;
49980;SDS011;35871;51.594;7.138;2023-04-28T11:31:13;6.88;;;4.80;;
49980;SDS011;35871;51.594;7.138;2023-04-28T11:36:36;5.97;;;3.55;;
49980;SDS011;35871;51.594;7.138;2023-04-28T11:41:41;5.18;;;4.13;;
49980;SDS011;35871;51.594;7.138;2023-04-28T11:46:50;6.32;;;5.15;;
49980;SDS011;35871;51.594;7.138;2023-04-28T11:51:57;8.57;;;4.95;;
49980;SDS011;35871;51.594;7.138;2023-04-28T11:57:05;6.00;;;4.90;;
49980;SDS011;35871;51.594;7.138;2023-04-28T12:02:13;6.05;;;4.85;;
49980;SDS011;35871;51.594;7.138;2023-04-28T12:07:16;7.38;;;5.22;;
49980;SDS011;35871;51.594;7.138;2023-04-28T12:12:28;6.68;;;4.70;;
49980;SDS011;35871;51.594;7.138;2023-04-28T12:17:33;7.20;;;4.68;;
49980;SDS011;35871;51.594;7.138;2023-04-28T12:22:47;7.55;;;6.07;;
49980;SDS011;35871;51.594;7.138;2023-04-28T12:27:59;6.82;;;5.18;;
49980;SDS011;35871;51.594;7.138;2023-04-28T12:33:01;7.28;;;5.13;;
49980;SDS011;35871;51.594;7.138;2023-04-28T12:38:03;8.85;;;6.40;;
49980;SDS011;35871;51.594;7.138;2023-04-28T12:43:04;8.43;;;7.28;;
49980;SDS011;35871;51.594;7.138;2023-04-28T12:48:05;10.60;;;6.82;;
49980;SDS011;35871;51.594;7.138;2023-04-28T12:53:07;8.45;;;7.65;;
49980;SDS011;35871;51.594;7.138;2023-04-28T12:58:08;10.23;;;9.15;;
49980;SDS011;35871;51.594;7.138;2023-04-28T13:03:09;10.30;;;8.38;;
49980;SDS011;35871;51.594;7.138;2023-04-28T13:08:10;9.85;;;8.85;;
49980;SDS011;35871;51.594;7.138;2023-04-28T13:13:12;9.70;;;8.10;;
49980;SDS011;35871;51.594;7.138;2023-04-28T13:18:13;10.65;;;9.57;;
49980;SDS011;35871;51.594;7.138;2023-04-28T13:23:15;12.82;;;8.18;;
49980;SDS011;35871;51.594;7.138;2023-04-28T13:28:16;9.43;;;8.55;;
49980;SDS011;35871;51.594;7.138;2023-04-28T13:33:17;11.18;;;7.55;;
49980;SDS011;35871;51.594;7.138;2023-04-28T13:38:18;9.32;;;7.00;;
49980;SDS011;35871;51.594;7.138;2023-04-28T13:43:20;8.02;;;7.22;;
49980;SDS011;35871;51.594;7.138;2023-04-28T13:48:22;8.85;;;7.68;;
49980;SDS011;35871;51.594;7.138;2023-04-28T13:53:24;8.75;;;6.82;;
49980;SDS011;35871;51.594;7.138;2023-04-28T13:58:25;6.95;;;5.65;;
49980;SDS011;35871;51.594;7.138;2023-04-28T14:03:26;5.93;;;5.32;;
49980;SDS011;35871;51.594;7.138;2023-04-28T14:08:27;6.25;;;5.65;;
49980;SDS011;35871;51.594;7.138;2023-04-28T14:13:28;6.13;;;5.45;;
49980;SDS011;35871;51.594;7.138;2023-04-28T14:18:29;6.55;;;4.80;;
49980;SDS011;35871;51.594;7.138;2023-04-28T14:23:32;5.57;;;5.03;;
49980;SDS011;35871;51.594;7.138;2023-04-28T14:28:34;5.28;;;4.55;;
49980;SDS011;35871;51.594;7.138;2023-04-28T14:33:36;7.60;;;4.43;;
49980;SDS011;35871;51.594;7.138;2023-04-28T14:38:37;6.13;;;4.60;;
49980;SDS011;35871;51.594;7.138;2023-04-28T14:43:38;5.13;;;4.25;;
49980;SDS011;35871;51.594;7.138;2023-04-28T14:48:39;3.83;;;3.25;;
49980;SDS011;35871;51.594;7.138;2023-04-28T14:53:40;5.05;;;4.15;;
49980;SDS011;35871;51.594;7.138;2023-04-28T14:58:42;5.60;;;5.10;;
49980;SDS011;35871;51.594;7.138;2023-04-28T15:03:43;5.38;;;4.15;;
49980;SDS011;35871;51.594;7.138;2023-04-28T15:08:44;6.35;;;4.38;;
49980;SDS011;35871;51.594;7.138;2023-04-28T15:13:46;4.07;;;3.78;;
49980;SDS011;35871;51.594;7.138;2023-04-28T15:18:47;6.47;;;3.90;;
49980;SDS011;35871;51.594;7.138;2023-04-28T15:23:48;7.18;;;3.58;;
49980;SDS011;35871;51.594;7.138;2023-04-28T15:28:49;4.85;;;3.63;;
49980;SDS011;35871;51.594;7.138;2023-04-28T15:33:50;3.97;;;3.50;;
49980;SDS011;35871;51.594;7.138;2023-04-28T15:38:51;5.15;;;4.40;;
49980;SDS011;35871;51.594;7.138;2023-04-28T15:43:52;3.72;;;3.30;;
49980;SDS011;35871;51.594;7.138;2023-04-28T15:48:54;6.68;;;6.07;;
49980;SDS011;35871;51.594;7.138;2023-04-28T15:53:55;4.68;;;3.60;;
49980;SDS011;35871;51.594;7.138;2023-04-28T15:58:57;4.03;;;3.42;;
49980;SDS011;35871;51.594;7.138;2023-04-28T16:03:58;3.95;;;3.15;;
49980;SDS011;35871;51.594;7.138;2023-04-28T16:09:00;4.53;;;4.13;;
49980;SDS011;35871;51.594;7.138;2023-04-28T16:14:01;3.58;;;2.80;;
49980;SDS011;35871;51.594;7.138;2023-04-28T16:19:02;3.00;;;2.70;;
49980;SDS011;35871;51.594;7.138;2023-04-28T16:24:03;5.05;;;3.88;;
49980;SDS011;35871;51.594;7.138;2023-04-28T16:29:04;3.35;;;2.88;;
49980;SDS011;35871;51.594;7.138;2023-04-28T16:34:05;4.20;;;3.58;;
49980;SDS011;35871;51.594;7.138;2023-04-28T16:39:06;5.00;;;3.83;;
49980;SDS011;35871;51.594;7.138;2023-04-28T16:44:08;3.75;;;3.15;;
49980;SDS011;35871;51.594;7.138;2023-04-28T16:49:10;3.60;;;3.30;;
49980;SDS011;35871;51.594;7.138;2023-04-28T16:54:11;4.70;;;3.80;;
49980;SDS011;35871;51.594;7.138;2023-04-28T16:59:13;10.20;;;8.95;;
49980;SDS011;35871;51.594;7.138;2023-04-28T17:04:17;4.63;;;4.03;;
49980;SDS011;35871;51.594;7.138;2023-04-28T17:09:18;3.72;;;3.28;;
49980;SDS011;35871;51.594;7.138;2023-04-28T17:14:20;4.72;;;3.83;;
49980;SDS011;35871;51.594;7.138;2023-04-28T17:19:21;5.43;;;4.55;;
49980;SDS011;35871;51.594;7.138;2023-04-28T17:24:22;4.43;;;4.00;;
49980;SDS011;35871;51.594;7.138;2023-04-28T17:29:23;3.55;;;3.22;;
49980;SDS011;35871;51.594;7.138;2023-04-28T17:34:24;3.80;;;3.40;;
49980;SDS011;35871;51.594;7.138;2023-04-28T17:39:26;3.88;;;3.05;;
49980;SDS011;35871;51.594;7.138;2023-04-28T17:44:27;2.90;;;2.60;;
49980;SDS011;35871;51.594;7.138;2023-04-28T17:49:28;2.85;;;2.50;;
49980;SDS011;35871;51.594;7.138;2023-04-28T17:54:29;3.22;;;2.60;;
49980;SDS011;35871;51.594;7.138;2023-04-28T17:59:31;2.90;;;2.10;;
49980;SDS011;35871;51.594;7.138;2023-04-28T18:04:32;2.75;;;2.42;;
49980;SDS011;35871;51.594;7.138;2023-04-28T18:09:33;3.22;;;2.92;;
49980;SDS011;35871;51.594;7.138;2023-04-28T18:14:34;3.30;;;2.95;;
49980;SDS011;35871;51.594;7.138;2023-04-28T18:19:35;2.25;;;2.03;;
49980;SDS011;35871;51.594;7.138;2023-04-28T18:24:36;3.00;;;2.60;;
49980;SDS011;35871;51.594;7.138;2023-04-28T18:29:37;3.10;;;2.67;;
49980;SDS011;35871;51.594;7.138;2023-04-28T18:34:38;2.90;;;2.22;;
49980;SDS011;35871;51.594;7.138;2023-04-28T18:39:39;2.25;;;1.90;;
49980;SDS011;35871;51.594;7.138;2023-04-28T18:44:40;3.88;;;3.05;;
49980;SDS011;35871;51.594;7.138;2023-04-28T18:49:41;4.47;;;2.67;;
49980;SDS011;35871;51.594;7.138;2023-04-28T18:54:42;3.38;;;3.08;;
49980;SDS011;35871;51.594;7.138;2023-04-28T18:59:44;4.65;;;4.20;;
49980;SDS011;35871;51.594;7.138;2023-04-28T19:04:45;3.67;;;3.33;;
49980;SDS011;35871;51.594;7.138;2023-04-28T19:09:46;6.03;;;5.43;;
49980;SDS011;35871;51.594;7.138;2023-04-28T19:14:47;7.03;;;6.43;;
